createdAt,value
2023-03-11T00:00:48.648Z,-23226.34
2023-03-11T00:02:53.237Z,-23224.44
2023-03-11T00:04:55.921Z,-23225.06
2023-03-11T00:06:58.775Z,-23226.03
2023-03-11T00:09:03.110Z,-23221.72
2023-03-11T00:11:05.815Z,-23223.78
2023-03-11T00:13:10.672Z,-23219.31
2023-03-11T00:15:13.497Z,-23219.31
2023-03-11T00:17:16.162Z,-23219.97
2023-03-11T00:19:18.757Z,-23214.53
2023-03-11T00:21:21.565Z,-23219.31
2023-03-11T00:23:24.788Z,-23220.59
2023-03-11T00:25:31.778Z,-23219.50
2023-03-11T00:27:34.199Z,-23221.09
2023-03-11T00:29:36.981Z,-23220.75
2023-03-11T00:31:39.648Z,-23219.31
2023-03-11T00:33:42.340Z,-23219.66
2023-03-11T00:35:45.857Z,-23222.50
2023-03-11T00:37:49.281Z,-23220.59
2023-03-11T00:39:51.929Z,-23222.34
2023-03-11T00:41:56.509Z,-23224.59
2023-03-11T00:43:59.140Z,-23223.16
2023-03-11T00:46:01.803Z,-23220.28
2023-03-11T00:48:04.916Z,-23224.44
2023-03-11T00:50:12.187Z,-23220.59
2023-03-11T00:52:14.856Z,-23223.78
2023-03-11T00:54:17.485Z,-23226.34
2023-03-11T00:56:20.156Z,-23223.78
2023-03-11T00:58:28.117Z,-23226.81
2023-03-11T01:00:31.943Z,-23225.38
2023-03-11T01:02:36.302Z,-23227.94
2023-03-11T01:04:39.318Z,-23226.66
2023-03-11T01:06:45.534Z,-23222.84
2023-03-11T01:08:48.691Z,-23225.88
2023-03-11T01:10:51.563Z,-23221.88
2023-03-11T01:12:54.370Z,-23225.38
2023-03-11T01:14:58.434Z,-23225.38
2023-03-11T01:17:01.025Z,-23224.91
2023-03-11T01:19:04.138Z,-23224.28
2023-03-11T01:21:06.771Z,-23225.38
2023-03-11T01:23:10.024Z,-23227.63
2023-03-11T01:25:15.011Z,-23226.66
2023-03-11T01:27:17.870Z,-23226.34
2023-03-11T01:29:20.544Z,-23222.69
2023-03-11T01:31:24.735Z,-23223.16
2023-03-11T01:33:27.496Z,-23223.78
2023-03-11T01:35:33.811Z,-23213.56
2023-03-11T01:37:36.468Z,-23215.81
2023-03-11T01:39:39.123Z,-23213.91
2023-03-11T01:41:41.810Z,-23214.53
2023-03-11T01:43:55.150Z,-23211.34
2023-03-11T01:46:10.512Z,-23209.75
2023-03-11T01:48:14.493Z,-23211.03
2023-03-11T01:50:17.527Z,-23206.41
2023-03-11T01:52:20.644Z,-23203.03
2023-03-11T01:54:26.848Z,-23204.47
2023-03-11T01:56:29.927Z,-23204.00
2023-03-11T01:58:36.804Z,-23204.81
2023-03-11T02:00:39.779Z,-23202.41
2023-03-11T02:02:46.696Z,-23203.38
2023-03-11T02:04:51.821Z,-23203.69
2023-03-11T02:06:54.539Z,-23202.72
2023-03-11T02:08:57.239Z,-23202.25
2023-03-11T02:10:59.885Z,-23204.31
2023-03-11T02:13:04.198Z,-23208.47
2023-03-11T02:15:08.303Z,-23207.19
2023-03-11T02:17:11.193Z,-23206.56
2023-03-11T02:19:25.275Z,-23207.34
2023-03-11T02:21:32.940Z,-23207.34
2023-03-11T02:23:45.243Z,-23203.69
2023-03-11T02:25:53.882Z,-23205.75
2023-03-11T02:28:00.725Z,-23207.19
2023-03-11T02:30:04.636Z,-23206.25
2023-03-11T02:32:09.792Z,-23201.44
2023-03-11T02:34:19.815Z,-23203.38
2023-03-11T02:36:34.262Z,-23201.44
2023-03-11T02:38:36.828Z,-23200.31
2023-03-11T02:40:48.251Z,-23198.25
2023-03-11T02:42:52.516Z,-23191.72
2023-03-11T02:45:01.135Z,-23193.16
2023-03-11T02:47:04.050Z,-23192.97
2023-03-11T02:49:07.545Z,-23188.19
2023-03-11T02:51:10.206Z,-23186.44
2023-03-11T02:53:12.886Z,-23189.31
2023-03-11T02:55:16.102Z,-23183.09
2023-03-11T02:57:18.726Z,-23184.34
2023-03-11T02:59:21.420Z,-23180.38
2023-03-11T03:01:25.430Z,-23184.19
2023-03-11T03:03:28.082Z,-23181.31
2023-03-11T03:05:30.779Z,-23177.97
2023-03-11T03:07:33.634Z,-23177.97
2023-03-11T03:09:36.928Z,-23178.13
2023-03-11T03:11:39.509Z,-23178.63
2023-03-11T03:13:42.159Z,-23177.50
2023-03-11T03:15:44.772Z,-23172.84
2023-03-11T03:17:51.378Z,-23174.28
2023-03-11T03:19:54.004Z,-23174.13
2023-03-11T03:21:56.618Z,-23175.56
2023-03-11T03:23:59.263Z,-23176.06
2023-03-11T03:26:02.184Z,-23173.66
2023-03-11T03:28:05.505Z,-23173.03
2023-03-11T03:30:10.225Z,-23170.16
2023-03-11T03:32:12.944Z,-23166.31
2023-03-11T03:34:16.956Z,-23169.19
2023-03-11T03:36:19.611Z,-23171.25
2023-03-11T03:38:22.300Z,-23170.78
2023-03-11T03:40:24.921Z,-23169.19
2023-03-11T03:42:28.733Z,-23168.53
2023-03-11T03:44:31.683Z,-23168.88
2023-03-11T03:46:34.291Z,-23167.75
2023-03-11T03:48:37.205Z,-23166.94
2023-03-11T03:50:41.796Z,-23165.34
2023-03-11T03:52:44.439Z,-23167.75
2023-03-11T03:54:47.253Z,-23164.72
2023-03-11T03:56:49.832Z,-23161.50
2023-03-11T03:58:52.421Z,-23158.97
2023-03-11T04:00:56.941Z,-23164.06
2023-03-11T04:02:59.578Z,-23161.50
2023-03-11T04:05:02.546Z,-23157.84
2023-03-11T04:07:07.672Z,-23159.91
2023-03-11T04:09:12.056Z,-23159.59
2023-03-11T04:11:15.146Z,-23159.44
2023-03-11T04:13:17.786Z,-23156.56
2023-03-11T04:15:20.484Z,-23155.44
2023-03-11T04:17:23.106Z,-23154.16
2023-03-11T04:19:26.053Z,-23158.16
2023-03-11T04:21:28.642Z,-23160.06
2023-03-11T04:23:32.856Z,-23154.47
2023-03-11T04:25:35.476Z,-23156.72
2023-03-11T04:27:42.652Z,-23159.13
2023-03-11T04:29:45.368Z,-23155.75
2023-03-11T04:31:48.230Z,-23157.03
2023-03-11T04:33:50.906Z,-23155.75
2023-03-11T04:35:53.578Z,-23154.31
2023-03-11T04:37:56.258Z,-23154.81
2023-03-11T04:40:00.304Z,-23153.19
2023-03-11T04:42:04.079Z,-23153.53
2023-03-11T04:44:06.990Z,-23152.88
2023-03-11T04:46:09.688Z,-23151.13
2023-03-11T04:48:12.277Z,-23149.03
2023-03-11T04:50:15.070Z,-23150.66
2023-03-11T04:52:17.849Z,-23150.00
2023-03-11T04:54:20.454Z,-23154.16
2023-03-11T04:56:24.527Z,-23152.88
2023-03-11T04:58:27.464Z,-23150.16
2023-03-11T05:00:30.045Z,-23152.25
2023-03-11T05:02:32.732Z,-23151.91
2023-03-11T05:04:35.777Z,-23152.41
2023-03-11T05:06:38.424Z,-23150.47
2023-03-11T05:08:41.499Z,-23151.91
2023-03-11T05:10:44.427Z,-23148.41
2023-03-11T05:12:48.726Z,-23147.75
2023-03-11T05:14:51.352Z,-23148.41
2023-03-11T05:16:53.999Z,-23149.38
2023-03-11T05:18:56.635Z,-23149.03
2023-03-11T05:20:59.474Z,-23147.94
2023-03-11T05:23:02.116Z,-23148.09
2023-03-11T05:25:05.916Z,-23147.28
2023-03-11T05:27:08.644Z,-23148.41
2023-03-11T05:29:12.693Z,-23148.56
2023-03-11T05:31:15.353Z,-23146.31
2023-03-11T05:33:18.046Z,-23148.09
2023-03-11T05:35:21.573Z,-23146.50
2023-03-11T05:37:24.385Z,-23145.53
2023-03-11T05:39:27.010Z,-23145.69
2023-03-11T05:41:29.646Z,-23143.94
2023-03-11T05:43:32.375Z,-23147.75
2023-03-11T05:45:36.327Z,-23143.59
2023-03-11T05:47:39.104Z,-23142.97
2023-03-11T05:49:41.804Z,-23139.28
2023-03-11T05:51:44.406Z,-23142.50
2023-03-11T05:53:48.501Z,-23142.00
2023-03-11T05:55:57.465Z,-23143.59
2023-03-11T05:58:00.141Z,-23143.94
2023-03-11T06:00:04.208Z,-23143.94
2023-03-11T06:02:08.231Z,-23146.50
2023-03-11T06:04:11.276Z,-23146.00
2023-03-11T06:06:15.001Z,-23147.59
2023-03-11T06:08:18.468Z,-23148.72
2023-03-11T06:10:21.125Z,-23149.69
2023-03-11T06:12:23.706Z,-23147.94
2023-03-11T06:14:28.848Z,-23148.88
2023-03-11T06:16:31.591Z,-23149.22
2023-03-11T06:18:36.023Z,-23152.72
2023-03-11T06:20:38.664Z,-23151.91
2023-03-11T06:22:41.274Z,-23149.69
2023-03-11T06:24:43.888Z,-23151.75
2023-03-11T06:26:46.818Z,-23152.88
2023-03-11T06:28:50.830Z,-23153.84
2023-03-11T06:30:56.822Z,-23156.25
2023-03-11T06:32:59.562Z,-23155.13
2023-03-11T06:35:03.948Z,-23159.13
2023-03-11T06:37:06.588Z,-23160.41
2023-03-11T06:39:09.786Z,-23162.47
2023-03-11T06:41:12.395Z,-23159.91
2023-03-11T06:43:15.053Z,-23164.72
2023-03-11T06:45:20.478Z,-23156.25
2023-03-11T06:47:23.327Z,-23159.91
2023-03-11T06:49:26.100Z,-23164.06
2023-03-11T06:51:30.179Z,-23168.69
2023-03-11T06:53:32.916Z,-23168.22
2023-03-11T06:55:36.120Z,-23166.63
2023-03-11T06:57:38.926Z,-23168.22
2023-03-11T06:59:41.538Z,-23172.84
2023-03-11T07:01:44.193Z,-23171.41
2023-03-11T07:03:47.868Z,-23174.28
2023-03-11T07:05:52.598Z,-23172.84
2023-03-11T07:07:56.619Z,-23171.72
2023-03-11T07:09:59.429Z,-23178.44
2023-03-11T07:12:02.058Z,-23180.38
2023-03-11T07:14:04.709Z,-23182.59
2023-03-11T07:16:09.443Z,-23185.97
2023-03-11T07:18:12.111Z,-23189.78
2023-03-11T07:20:14.845Z,-23194.59
2023-03-11T07:22:17.936Z,-23192.03
2023-03-11T07:24:21.881Z,-23194.59
2023-03-11T07:26:25.674Z,-23194.59
2023-03-11T07:28:29.781Z,-23204.63
2023-03-11T07:30:34.430Z,-23208.47
2023-03-11T07:32:37.097Z,-23215.19
2023-03-11T07:34:39.921Z,-23214.84
2023-03-11T07:36:43.692Z,-23223.16
2023-03-11T07:38:47.345Z,-23209.13
2023-03-11T07:40:59.171Z,-23238.16
2023-03-11T07:43:01.806Z,-23269.72
2023-03-11T07:45:04.582Z,-23273.56
2023-03-11T07:47:07.490Z,-23298.56
2023-03-11T07:49:10.270Z,-23255.69
2023-03-11T07:51:14.755Z,-23286.94
2023-03-11T07:53:17.488Z,-23303.66
2023-03-11T07:55:20.182Z,-23308.44
2023-03-11T07:57:24.159Z,-23295.38
2023-03-11T07:59:26.775Z,-23325.47
2023-03-11T08:01:36.135Z,-23312.25
2023-03-11T08:03:39.756Z,-23319.28
2023-03-11T08:05:42.386Z,-23334.56
2023-03-11T08:07:45.275Z,-23291.72
2023-03-11T08:09:47.954Z,-23275.47
2023-03-11T08:11:50.562Z,-23282.00
2023-03-11T08:13:54.830Z,-23331.53
2023-03-11T08:15:57.614Z,-23334.56
2023-03-11T08:18:00.275Z,-23333.44
2023-03-11T08:20:02.990Z,-23337.56
2023-03-11T08:22:05.987Z,-23388.63
2023-03-11T08:24:09.061Z,-23318.16
2023-03-11T08:26:14.574Z,-23307.00
2023-03-11T08:28:17.276Z,-23350.31
2023-03-11T08:30:21.754Z,-23378.63
2023-03-11T08:32:24.461Z,-23336.63
2023-03-11T08:34:27.657Z,-23350.94
2023-03-11T08:36:31.049Z,-23334.72
2023-03-11T08:38:33.756Z,-23398.31
2023-03-11T08:40:36.440Z,-23396.72
2023-03-11T08:42:39.022Z,-23405.47
2023-03-11T08:44:41.638Z,-23341.06
2023-03-11T08:46:45.694Z,-23368.75
2023-03-11T08:48:48.498Z,-23346.81
2023-03-11T08:50:54.333Z,-23345.53
2023-03-11T08:53:00.389Z,-23361.94
2023-03-11T08:55:04.788Z,-23409.44
2023-03-11T08:57:07.460Z,-23375.44
2023-03-11T08:59:10.128Z,-23435.16
2023-03-11T09:01:14.081Z,-23355.09
2023-03-11T09:03:18.055Z,-23279.59
2023-03-11T09:05:20.733Z,-23286.31
2023-03-11T09:07:23.402Z,-23249.63
2023-03-11T09:09:26.004Z,-23252.50
2023-03-11T09:11:28.854Z,-23331.84
2023-03-11T09:13:31.511Z,-23351.59
2023-03-11T09:15:34.745Z,-23412.94
2023-03-11T09:17:37.531Z,-23385.94
2023-03-11T09:19:41.884Z,-23331.84
2023-03-11T09:21:44.493Z,-23278.66
2023-03-11T09:23:47.938Z,-23299.38
2023-03-11T09:25:50.869Z,-23295.53
2023-03-11T09:27:53.480Z,-23285.66
2023-03-11T09:29:56.118Z,-23278.50
2023-03-11T09:31:58.764Z,-23253.16
2023-03-11T09:34:01.452Z,-23264.63
2023-03-11T09:36:07.000Z,-23279.13
2023-03-11T09:38:09.617Z,-23281.84
2023-03-11T09:40:16.607Z,-23301.91
2023-03-11T09:42:26.190Z,-23350.31
2023-03-11T09:44:33.603Z,-23372.72
2023-03-11T09:47:12.918Z,-23347.91
2023-03-11T09:49:25.882Z,-23423.72
2023-03-11T09:51:33.868Z,-23395.78
2023-03-11T09:53:42.120Z,-23404.19
2023-03-11T09:55:47.122Z,-23340.59
2023-03-11T09:57:50.124Z,-23319.44
2023-03-11T09:59:53.377Z,-23284.88
2023-03-11T10:01:56.047Z,-23302.38
2023-03-11T10:04:05.609Z,-23287.25
2023-03-11T10:06:20.809Z,-23256.19
2023-03-11T10:08:30.486Z,-23249.78
2023-03-11T10:10:39.651Z,-23263.34
2023-03-11T10:12:53.151Z,-23237.03
2023-03-11T10:15:14.695Z,-23254.25
2023-03-11T10:17:37.368Z,-23247.56
2023-03-11T10:19:47.689Z,-23242.13
2023-03-11T10:21:58.146Z,-23244.84
2023-03-11T10:24:16.433Z,-23314.03
2023-03-11T10:26:24.331Z,-23386.56
2023-03-11T10:28:33.529Z,-23398.31
2023-03-11T10:30:41.737Z,-23479.25
2023-03-11T10:32:50.588Z,-23359.53
2023-03-11T10:34:57.954Z,-23334.56
2023-03-11T10:37:04.592Z,-23396.72
2023-03-11T10:39:11.686Z,-23344.25
2023-03-11T10:41:20.482Z,-23368.44
2023-03-11T10:43:29.565Z,-23376.41
2023-03-11T10:45:37.909Z,-23401.50
2023-03-11T10:47:40.618Z,-23377.66
2023-03-11T10:49:43.251Z,-23368.59
2023-03-11T10:51:48.003Z,-23330.56
2023-03-11T10:53:52.862Z,-23322.94
2023-03-11T10:55:59.169Z,-23332.66
2023-03-11T10:58:13.038Z,-23306.06
2023-03-11T11:00:30.164Z,-23306.06
2023-03-11T11:02:34.484Z,-23312.75
2023-03-11T11:04:41.071Z,-23295.88
2023-03-11T11:06:43.700Z,-23281.84
2023-03-11T11:08:47.000Z,-23276.09
2023-03-11T11:10:53.890Z,-23285.97
2023-03-11T11:12:59.986Z,-23272.13
2023-03-11T11:15:02.651Z,-23280.56
2023-03-11T11:17:05.378Z,-23283.75
2023-03-11T11:19:12.563Z,-23290.94
2023-03-11T11:21:18.276Z,-23276.75
2023-03-11T11:23:27.161Z,-23277.06
2023-03-11T11:25:35.145Z,-23302.56
2023-03-11T11:27:37.773Z,-23296.03
2023-03-11T11:29:41.869Z,-23283.44
2023-03-11T11:31:45.979Z,-23288.06
2023-03-11T11:33:51.397Z,-23309.88
2023-03-11T11:35:56.418Z,-23329.31
2023-03-11T11:38:02.551Z,-23350.94
2023-03-11T11:40:11.428Z,-23339.00
2023-03-11T11:42:15.834Z,-23353.50
2023-03-11T11:44:22.316Z,-23312.09
2023-03-11T11:46:32.329Z,-23306.06
2023-03-11T11:48:43.722Z,-23314.81
2023-03-11T11:50:52.586Z,-23320.06
2023-03-11T11:52:59.644Z,-23333.75
2023-03-11T11:55:05.969Z,-23328.97
2023-03-11T11:57:13.406Z,-23300.31
2023-03-11T11:59:19.670Z,-23289.31
2023-03-11T12:01:35.425Z,-23276.44
2023-03-11T12:03:58.989Z,-23284.72
2023-03-11T12:06:06.891Z,-23291.09
2023-03-11T12:08:18.312Z,-23306.69
2023-03-11T12:10:29.089Z,-23308.91
2023-03-11T12:12:37.990Z,-23300.97
2023-03-11T12:14:49.447Z,-23307.81
2023-03-11T12:16:58.415Z,-23321.50
2023-03-11T12:19:05.981Z,-23307.66
2023-03-11T12:21:23.933Z,-23307.97
2023-03-11T12:23:43.866Z,-23303.03
2023-03-11T12:26:12.188Z,-23324.84
2023-03-11T12:28:24.282Z,-23385.28
2023-03-11T12:30:31.028Z,-23378.63
2023-03-11T12:32:40.621Z,-23343.47
2023-03-11T12:34:43.268Z,-23424.22
2023-03-11T12:36:47.541Z,-23379.56
2023-03-11T12:38:51.888Z,-23354.75
2023-03-11T12:41:01.148Z,-23346.66
2023-03-11T12:43:03.716Z,-23331.53
2023-03-11T12:45:48.135Z,-23393.56
2023-03-11T12:48:26.047Z,-23380.53
2023-03-11T12:50:40.723Z,-23347.44
2023-03-11T12:52:54.994Z,-23358.25
2023-03-11T12:55:37.648Z,-23345.22
2023-03-11T12:57:53.865Z,-23358.44
2023-03-11T13:00:32.736Z,-23371.00
2023-03-11T13:02:57.564Z,-23383.69
2023-03-11T13:05:14.642Z,-23403.25
2023-03-11T13:07:42.126Z,-23422.78
2023-03-11T13:09:44.838Z,-23380.22
2023-03-11T13:11:49.011Z,-23425.00
2023-03-11T13:13:52.080Z,-23406.28
2023-03-11T13:15:55.420Z,-23362.25
2023-03-11T13:18:00.930Z,-23342.81
2023-03-11T13:20:26.678Z,-23339.50
2023-03-11T13:23:10.164Z,-23365.44
2023-03-11T13:25:34.154Z,-23367.00
2023-03-11T13:27:45.346Z,-23401.19
2023-03-11T13:29:57.209Z,-23420.41
2023-03-11T13:32:21.076Z,-23388.63
2023-03-11T13:34:36.636Z,-23371.94
2023-03-11T13:36:58.664Z,-23414.22
2023-03-11T13:39:25.802Z,-23375.44
2023-03-11T13:41:32.080Z,-23363.66
2023-03-11T13:43:36.148Z,-23417.38
2023-03-11T13:45:40.035Z,-23409.91
2023-03-11T13:47:49.640Z,-23372.25
2023-03-11T13:49:56.335Z,-23361.13
2023-03-11T13:52:02.907Z,-23372.25
2023-03-11T13:54:11.587Z,-23342.66
2023-03-11T13:56:18.936Z,-23335.34
2023-03-11T13:58:24.237Z,-23334.25
2023-03-11T14:00:28.904Z,-23348.41
2023-03-11T14:02:31.733Z,-23349.19
2023-03-11T14:04:37.395Z,-23355.41
2023-03-11T14:06:40.071Z,-23375.75
2023-03-11T14:08:44.257Z,-23362.41
2023-03-11T14:10:53.259Z,-23367.00
2023-03-11T14:13:16.069Z,-23366.69
2023-03-11T14:15:22.626Z,-23364.00
2023-03-11T14:17:25.329Z,-23364.47
2023-03-11T14:19:28.625Z,-23338.22
2023-03-11T14:21:31.895Z,-23344.25
2023-03-11T14:23:36.989Z,-23342.34
2023-03-11T14:25:41.148Z,-23330.09
2023-03-11T14:27:51.207Z,-23330.41
2023-03-11T14:29:53.993Z,-23352.06
2023-03-11T14:31:56.742Z,-23341.41
2023-03-11T14:34:04.337Z,-23361.75
2023-03-11T14:36:15.843Z,-23356.50
2023-03-11T14:38:22.593Z,-23341.06
2023-03-11T14:40:28.194Z,-23345.22
2023-03-11T14:42:37.155Z,-23338.69
2023-03-11T14:44:42.230Z,-23343.00
2023-03-11T14:46:46.429Z,-23354.13
2023-03-11T14:48:49.397Z,-23343.94
2023-03-11T14:50:53.106Z,-23332.97
2023-03-11T14:53:00.638Z,-23333.44
2023-03-11T14:55:08.503Z,-23341.41
2023-03-11T14:57:22.615Z,-23333.75
2023-03-11T14:59:28.977Z,-23343.31
2023-03-11T15:01:35.357Z,-23328.97
2023-03-11T15:03:41.748Z,-23325.97
2023-03-11T15:05:48.429Z,-23320.06
2023-03-11T15:07:57.230Z,-23328.34
2023-03-11T15:09:59.880Z,-23318.78
2023-03-11T15:12:04.760Z,-23329.31
2023-03-11T15:14:18.974Z,-23331.38
2023-03-11T15:16:34.050Z,-23337.75
2023-03-11T15:18:38.622Z,-23326.44
2023-03-11T15:20:41.362Z,-23326.91
2023-03-11T15:22:43.995Z,-23334.72
2023-03-11T15:24:51.506Z,-23327.72
2023-03-11T15:26:56.317Z,-23327.38
2023-03-11T15:29:01.656Z,-23327.38
2023-03-11T15:31:18.658Z,-23332.81
2023-03-11T15:33:24.395Z,-23337.91
2023-03-11T15:35:28.202Z,-23328.03
2023-03-11T15:37:31.705Z,-23326.44
2023-03-11T15:39:46.222Z,-23333.13
2023-03-11T15:42:01.023Z,-23337.91
2023-03-11T15:44:07.381Z,-23331.22
2023-03-11T15:46:11.536Z,-23322.47
2023-03-11T15:48:14.994Z,-23315.78
2023-03-11T15:50:25.745Z,-23314.34
2023-03-11T15:52:31.246Z,-23315.28
2023-03-11T15:54:33.923Z,-23314.97
2023-03-11T15:56:36.918Z,-23314.66
2023-03-11T15:58:40.016Z,-23308.44
2023-03-11T16:00:48.748Z,-23310.84
2023-03-11T16:02:52.074Z,-23307.31
2023-03-11T16:04:56.938Z,-23310.34
2023-03-11T16:07:07.832Z,-23308.28
2023-03-11T16:09:13.875Z,-23301.59
2023-03-11T16:11:18.653Z,-23303.66
2023-03-11T16:13:21.290Z,-23300.63
2023-03-11T16:15:28.590Z,-23298.72
2023-03-11T16:17:46.722Z,-23306.38
2023-03-11T16:19:51.763Z,-23302.56
2023-03-11T16:21:54.511Z,-23304.94
2023-03-11T16:23:58.598Z,-23306.69
2023-03-11T16:26:03.963Z,-23300.63
2023-03-11T16:28:07.501Z,-23303.66
2023-03-11T16:30:12.511Z,-23297.78
2023-03-11T16:32:15.218Z,-23300.31
2023-03-11T16:34:18.409Z,-23296.81
2023-03-11T16:36:21.094Z,-23297.63
2023-03-11T16:38:24.134Z,-23291.56
2023-03-11T16:40:29.324Z,-23290.28
2023-03-11T16:42:31.942Z,-23286.78
2023-03-11T16:44:34.685Z,-23285.66
2023-03-11T16:46:37.465Z,-23288.06
2023-03-11T16:48:40.223Z,-23286.63
2023-03-11T16:50:42.878Z,-23287.25
2023-03-11T16:52:45.584Z,-23281.84
2023-03-11T16:54:48.468Z,-23282.63
2023-03-11T16:56:52.396Z,-23281.53
2023-03-11T16:58:55.172Z,-23283.75
2023-03-11T17:00:57.858Z,-23284.38
2023-03-11T17:03:00.577Z,-23281.84
2023-03-11T17:05:04.573Z,-23282.47
2023-03-11T17:07:08.342Z,-23279.94
2023-03-11T17:09:11.057Z,-23278.81
2023-03-11T17:11:18.204Z,-23277.06
2023-03-11T17:13:22.235Z,-23277.22
2023-03-11T17:15:24.881Z,-23274.50
2023-03-11T17:17:27.506Z,-23276.25
2023-03-11T17:19:31.541Z,-23275.31
2023-03-11T17:21:34.265Z,-23275.31
2023-03-11T17:23:37.256Z,-23275.00
2023-03-11T17:25:41.947Z,-23274.34
2023-03-11T17:27:44.698Z,-23277.22
2023-03-11T17:29:48.744Z,-23273.56
2023-03-11T17:31:51.487Z,-23273.56
2023-03-11T17:33:54.260Z,-23272.91
2023-03-11T17:36:02.132Z,-23269.25
2023-03-11T17:38:04.798Z,-23268.44
2023-03-11T17:40:08.687Z,-23266.69
2023-03-11T17:42:11.557Z,-23269.41
2023-03-11T17:44:14.475Z,-23265.59
2023-03-11T17:46:20.389Z,-23263.50
2023-03-11T17:48:23.015Z,-23262.06
2023-03-11T17:50:26.451Z,-23260.97
2023-03-11T17:52:29.338Z,-23259.03
2023-03-11T17:54:31.982Z,-23259.84
2023-03-11T17:56:34.854Z,-23258.25
2023-03-11T17:58:37.628Z,-23254.25
2023-03-11T18:00:40.242Z,-23256.97
2023-03-11T18:02:44.508Z,-23252.50
2023-03-11T18:04:51.952Z,-23254.09
2023-03-11T18:06:55.049Z,-23254.59
2023-03-11T18:08:57.659Z,-23253.63
2023-03-11T18:11:02.954Z,-23251.88
2023-03-11T18:13:05.635Z,-23255.06
2023-03-11T18:15:14.434Z,-23249.31
2023-03-11T18:17:18.520Z,-23247.56
2023-03-11T18:19:22.704Z,-23249.00
2023-03-11T18:21:26.899Z,-23245.81
2023-03-11T18:23:32.880Z,-23245.19
2023-03-11T18:25:35.516Z,-23245.97
2023-03-11T18:27:38.544Z,-23245.97
2023-03-11T18:29:41.317Z,-23242.31
2023-03-11T18:31:44.115Z,-23243.09
2023-03-11T18:33:48.989Z,-23239.44
2023-03-11T18:35:53.281Z,-23239.75
2023-03-11T18:37:56.034Z,-23239.13
2023-03-11T18:39:58.617Z,-23238.00
2023-03-11T18:42:02.837Z,-23237.19
2023-03-11T18:44:05.910Z,-23239.44
2023-03-11T18:46:10.026Z,-23240.38
2023-03-11T18:48:12.647Z,-23239.75
2023-03-11T18:50:15.437Z,-23239.28
2023-03-11T18:52:19.483Z,-23241.03
2023-03-11T18:54:22.754Z,-23236.41
2023-03-11T18:56:25.635Z,-23234.97
2023-03-11T18:58:28.756Z,-23236.25
2023-03-11T19:00:31.374Z,-23234.66
2023-03-11T19:02:34.012Z,-23237.84
2023-03-11T19:04:36.779Z,-23231.13
2023-03-11T19:06:39.613Z,-23232.25
2023-03-11T19:08:44.443Z,-23230.19
2023-03-11T19:10:47.352Z,-23229.53
2023-03-11T19:12:49.965Z,-23228.41
2023-03-11T19:14:52.575Z,-23228.59
2023-03-11T19:16:55.252Z,-23227.00
2023-03-11T19:18:58.134Z,-23225.72
2023-03-11T19:21:02.546Z,-23220.44
2023-03-11T19:23:06.297Z,-23218.38
2023-03-11T19:25:10.965Z,-23220.13
2023-03-11T19:27:13.598Z,-23220.28
2023-03-11T19:29:16.300Z,-23218.06
2023-03-11T19:31:18.925Z,-23219.31
2023-03-11T19:33:22.602Z,-23215.50
2023-03-11T19:35:25.291Z,-23215.50
2023-03-11T19:37:27.857Z,-23213.25
2023-03-11T19:39:30.473Z,-23215.50
2023-03-11T19:41:34.568Z,-23212.31
2023-03-11T19:43:37.683Z,-23211.03
2023-03-11T19:45:40.464Z,-23210.38
2023-03-11T19:47:46.373Z,-23211.03
2023-03-11T19:49:48.981Z,-23211.66
2023-03-11T19:51:52.882Z,-23211.19
2023-03-11T19:53:55.579Z,-23208.00
2023-03-11T19:55:58.956Z,-23209.91
2023-03-11T19:58:02.979Z,-23204.97
2023-03-11T20:00:07.326Z,-23207.50
2023-03-11T20:02:12.400Z,-23205.59
2023-03-11T20:04:15.347Z,-23204.97
2023-03-11T20:06:20.558Z,-23204.31
2023-03-11T20:08:23.692Z,-23205.28
2023-03-11T20:10:26.341Z,-23203.38
2023-03-11T20:12:28.953Z,-23205.44
2023-03-11T20:14:33.087Z,-23204.31
2023-03-11T20:16:35.740Z,-23204.97
2023-03-11T20:18:38.491Z,-23205.91
2023-03-11T20:20:43.124Z,-23204.81
2023-03-11T20:22:45.860Z,-23205.28
2023-03-11T20:24:48.884Z,-23204.31
2023-03-11T20:26:51.634Z,-23201.59
2023-03-11T20:28:57.125Z,-23200.50
2023-03-11T20:31:07.487Z,-23199.69
2023-03-11T20:33:10.281Z,-23201.28
2023-03-11T20:35:15.284Z,-23200.50
2023-03-11T20:37:18.070Z,-23198.41
2023-03-11T20:39:20.805Z,-23198.72
2023-03-11T20:41:25.183Z,-23196.34
2023-03-11T20:43:28.332Z,-23196.34
2023-03-11T20:45:31.171Z,-23192.97
2023-03-11T20:47:35.284Z,-23191.22
2023-03-11T20:49:37.949Z,-23186.75
2023-03-11T20:51:41.906Z,-23189.31
2023-03-11T20:53:44.748Z,-23190.44
2023-03-11T20:55:47.413Z,-23189.00
2023-03-11T20:57:50.081Z,-23189.94
2023-03-11T20:59:52.932Z,-23189.94
2023-03-11T21:01:55.900Z,-23188.84
2023-03-11T21:04:03.504Z,-23186.44
2023-03-11T21:06:13.249Z,-23185.78
2023-03-11T21:08:16.038Z,-23186.44
2023-03-11T21:10:19.293Z,-23185.78
2023-03-11T21:12:21.931Z,-23185.78
2023-03-11T21:14:24.738Z,-23187.22
2023-03-11T21:16:28.205Z,-23184.84
2023-03-11T21:18:31.346Z,-23184.53
2023-03-11T21:20:35.399Z,-23184.19
2023-03-11T21:22:38.174Z,-23184.84
2023-03-11T21:24:40.840Z,-23184.53
2023-03-11T21:26:43.625Z,-23186.44
2023-03-11T21:28:47.298Z,-23185.47
2023-03-11T21:30:58.224Z,-23181.66
2023-03-11T21:33:00.945Z,-23181.31
2023-03-11T21:35:03.972Z,-23182.28
2023-03-11T21:37:08.057Z,-23182.91
2023-03-11T21:39:10.710Z,-23181.66
2023-03-11T21:41:15.597Z,-23178.75
2023-03-11T21:43:18.965Z,-23179.56
2023-03-11T21:45:22.062Z,-23174.28
2023-03-11T21:47:24.797Z,-23172.38
2023-03-11T21:49:27.558Z,-23174.78
2023-03-11T21:51:30.728Z,-23173.34
2023-03-11T21:53:35.577Z,-23174.63
2023-03-11T21:55:42.151Z,-23174.78
2023-03-11T21:57:45.134Z,-23176.84
2023-03-11T21:59:48.010Z,-23174.63
2023-03-11T22:01:50.962Z,-23173.34
2023-03-11T22:03:54.073Z,-23173.97
2023-03-11T22:05:58.137Z,-23170.47
2023-03-11T22:08:00.823Z,-23174.94
2023-03-11T22:10:05.412Z,-23173.34
2023-03-11T22:12:08.304Z,-23170.16
2023-03-11T22:14:11.162Z,-23171.91
2023-03-11T22:16:14.221Z,-23168.22
2023-03-11T22:18:17.157Z,-23169.50
2023-03-11T22:20:20.050Z,-23167.09
2023-03-11T22:22:22.806Z,-23166.00
2023-03-11T22:24:25.399Z,-23164.72
2023-03-11T22:26:29.417Z,-23167.91
2023-03-11T22:28:32.090Z,-23168.38
2023-03-11T22:30:34.730Z,-23168.88
2023-03-11T22:32:37.522Z,-23168.88
2023-03-11T22:34:41.672Z,-23168.88
2023-03-11T22:36:44.396Z,-23169.19
2023-03-11T22:38:47.165Z,-23166.78
2023-03-11T22:40:50.351Z,-23164.06
2023-03-11T22:42:54.578Z,-23162.47
2023-03-11T22:44:57.361Z,-23159.13
2023-03-11T22:47:00.129Z,-23160.72
2023-03-11T22:49:02.873Z,-23163.28
2023-03-11T22:51:07.369Z,-23165.03
2023-03-11T22:53:10.052Z,-23162.47
2023-03-11T22:55:12.779Z,-23162.31
2023-03-11T22:57:15.342Z,-23162.63
2023-03-11T22:59:19.286Z,-23162.78
2023-03-11T23:01:21.947Z,-23162.47
2023-03-11T23:03:24.630Z,-23162.47
2023-03-11T23:05:27.323Z,-23162.94
2023-03-11T23:07:29.972Z,-23161.66
2023-03-11T23:09:32.651Z,-23165.50
2023-03-11T23:11:35.246Z,-23166.00
2023-03-11T23:13:38.397Z,-23165.03
2023-03-11T23:15:42.646Z,-23165.03
2023-03-11T23:17:45.655Z,-23164.72
2023-03-11T23:19:48.430Z,-23163.91
2023-03-11T23:21:51.044Z,-23164.38
2023-03-11T23:23:54.850Z,-23164.72
2023-03-11T23:25:57.789Z,-23165.66
2023-03-11T23:28:03.038Z,-23165.03
2023-03-11T23:30:07.144Z,-23162.47
2023-03-11T23:32:11.384Z,-23160.88
2023-03-11T23:34:13.988Z,-23162.00
2023-03-11T23:36:19.164Z,-23161.50
2023-03-11T23:38:21.812Z,-23160.88
2023-03-11T23:40:24.449Z,-23158.16
2023-03-11T23:42:27.200Z,-23154.16
2023-03-11T23:44:29.785Z,-23153.53
2023-03-11T23:46:32.627Z,-23156.06
2023-03-11T23:48:37.124Z,-23156.41